sensor_id;sensor_type;location;lat;lon;timestamp;pressure;altitude;pressure_sealevel;temperature;humidity
38452;BME280;24231;52.514;13.438;2023-05-22T00:01:57;101317.77;;;19.16;41.00
38452;BME280;24231;52.514;13.438;2023-05-22T00:04:23;101306.35;;;19.02;41.17
38452;BME280;24231;52.514;13.438;2023-05-22T00:06:50;101315.72;;;19.30;40.69
38452;BME280;24231;52.514;13.438;2023-05-22T00:09:17;101326.94;;;18.89;41.64
38452;BME280;24231;52.514;13.438;2023-05-22T00:11:44;101312.60;;;19.01;41.37
38452;BME280;24231;52.514;13.438;2023-05-22T00:14:11;101322.93;;;18.94;41.78
38452;BME280;24231;52.514;13.438;2023-05-22T00:16:39;101308.95;;;19.34;40.73
38452;BME280;24231;52.514;13.438;2023-05-22T00:19:06;101310.38;;;19.46;40.24
38452;BME280;24231;52.514;13.438;2023-05-22T00:21:33;101313.24;;;19.24;40.81
38452;BME280;24231;52.514;13.438;2023-05-22T00:24:00;101313.01;;;19.04;41.14
38452;BME280;24231;52.514;13.438;2023-05-22T00:26:27;101306.92;;;19.16;40.90
38452;BME280;24231;52.514;13.438;2023-05-22T00:28:54;101301.32;;;19.05;41.12
38452;BME280;24231;52.514;13.438;2023-05-22T00:31:21;101303.84;;;18.95;41.10
38452;BME280;24231;52.514;13.438;2023-05-22T00:33:48;101297.86;;;19.20;40.84
38452;BME280;24231;52.514;13.438;2023-05-22T00:36:15;101297.51;;;19.35;40.28
38452;BME280;24231;52.514;13.438;2023-05-22T00:38:42;101298.09;;;19.38;40.11
38452;BME280;24231;52.514;13.438;2023-05-22T00:41:10;101296.18;;;19.25;40.38
38452;BME280;24231;52.514;13.438;2023-05-22T00:43:38;101295.90;;;19.00;40.75
38452;BME280;24231;52.514;13.438;2023-05-22T00:46:05;101294.26;;;19.17;40.57
38452;BME280;24231;52.514;13.438;2023-05-22T00:48:32;101300.71;;;18.79;41.30
38452;BME280;24231;52.514;13.438;2023-05-22T00:50:59;101288.46;;;19.10;40.74
38452;BME280;24231;52.514;13.438;2023-05-22T00:53:28;101291.00;;;18.97;40.65
38452;BME280;24231;52.514;13.438;2023-05-22T00:55:57;101285.44;;;18.65;41.40
38452;BME280;24231;52.514;13.438;2023-05-22T00:58:26;101282.59;;;18.89;40.81
38452;BME280;24231;52.514;13.438;2023-05-22T01:00:53;101286.63;;;18.95;40.87
38452;BME280;24231;52.514;13.438;2023-05-22T01:03:21;101284.53;;;19.05;40.22
38452;BME280;24231;52.514;13.438;2023-05-22T01:05:48;101291.73;;;18.87;40.77
38452;BME280;24231;52.514;13.438;2023-05-22T01:08:16;101283.24;;;18.65;41.16
38452;BME280;24231;52.514;13.438;2023-05-22T01:10:43;101285.81;;;19.04;40.64
38452;BME280;24231;52.514;13.438;2023-05-22T01:13:16;101289.11;;;18.60;41.17
38452;BME280;24231;52.514;13.438;2023-05-22T01:15:48;101287.78;;;18.51;41.43
38452;BME280;24231;52.514;13.438;2023-05-22T01:18:23;101285.88;;;18.50;41.48
38452;BME280;24231;52.514;13.438;2023-05-22T01:20:57;101277.47;;;18.69;41.19
38452;BME280;24231;52.514;13.438;2023-05-22T01:23:42;101276.42;;;18.99;40.26
38452;BME280;24231;52.514;13.438;2023-05-22T01:26:21;101278.10;;;18.79;40.80
38452;BME280;24231;52.514;13.438;2023-05-22T01:30:11;101279.24;;;18.74;40.55
38452;BME280;24231;52.514;13.438;2023-05-22T01:32:43;101276.00;;;18.78;40.46
38452;BME280;24231;52.514;13.438;2023-05-22T01:35:15;101275.10;;;19.25;39.45
38452;BME280;24231;52.514;13.438;2023-05-22T01:37:43;101280.70;;;19.15;39.75
38452;BME280;24231;52.514;13.438;2023-05-22T01:40:12;101274.98;;;18.93;39.99
38452;BME280;24231;52.514;13.438;2023-05-22T01:42:39;101268.91;;;19.25;39.40
38452;BME280;24231;52.514;13.438;2023-05-22T01:45:09;101275.05;;;18.77;40.20
38452;BME280;24231;52.514;13.438;2023-05-22T01:47:37;101271.25;;;18.65;40.84
38452;BME280;24231;52.514;13.438;2023-05-22T01:50:04;101268.10;;;18.62;40.65
38452;BME280;24231;52.514;13.438;2023-05-22T01:52:38;101277.94;;;18.51;41.06
38452;BME280;24231;52.514;13.438;2023-05-22T01:55:11;101278.39;;;18.34;41.23
38452;BME280;24231;52.514;13.438;2023-05-22T01:57:45;101277.59;;;18.36;41.33
38452;BME280;24231;52.514;13.438;2023-05-22T02:00:15;101283.30;;;18.48;41.24
38452;BME280;24231;52.514;13.438;2023-05-22T02:02:47;101284.28;;;18.66;40.60
38452;BME280;24231;52.514;13.438;2023-05-22T02:05:17;101277.98;;;18.07;41.80
38452;BME280;24231;52.514;13.438;2023-05-22T02:07:47;101275.44;;;18.50;41.12
38452;BME280;24231;52.514;13.438;2023-05-22T02:10:14;101276.02;;;19.00;39.85
38452;BME280;24231;52.514;13.438;2023-05-22T02:12:42;101264.20;;;18.19;41.46
38452;BME280;24231;52.514;13.438;2023-05-22T02:15:11;101270.63;;;19.23;39.63
38452;BME280;24231;52.514;13.438;2023-05-22T02:17:39;101266.15;;;18.55;40.54
38452;BME280;24231;52.514;13.438;2023-05-22T02:20:09;101267.49;;;18.60;40.53
38452;BME280;24231;52.514;13.438;2023-05-22T02:22:37;101267.34;;;19.11;39.66
38452;BME280;24231;52.514;13.438;2023-05-22T02:25:17;101269.29;;;18.12;41.13
38452;BME280;24231;52.514;13.438;2023-05-22T02:27:55;101272.11;;;18.31;40.86
38452;BME280;24231;52.514;13.438;2023-05-22T02:30:23;101271.50;;;18.59;40.67
38452;BME280;24231;52.514;13.438;2023-05-22T02:32:55;101273.29;;;18.47;40.66
38452;BME280;24231;52.514;13.438;2023-05-22T02:35:28;101271.64;;;18.37;40.67
38452;BME280;24231;52.514;13.438;2023-05-22T02:37:55;101270.64;;;18.85;39.47
38452;BME280;24231;52.514;13.438;2023-05-22T02:40:38;101266.86;;;17.64;42.31
38452;BME280;24231;52.514;13.438;2023-05-22T02:43:05;101270.01;;;18.38;40.75
38452;BME280;24231;52.514;13.438;2023-05-22T02:45:52;101267.49;;;18.12;41.22
38452;BME280;24231;52.514;13.438;2023-05-22T02:48:20;101270.61;;;18.24;41.18
38452;BME280;24231;52.514;13.438;2023-05-22T02:50:47;101262.29;;;18.05;41.49
38452;BME280;24231;52.514;13.438;2023-05-22T02:53:14;101265.58;;;17.47;41.91
38452;BME280;24231;52.514;13.438;2023-05-22T02:55:42;101263.28;;;17.88;41.56
38452;BME280;24231;52.514;13.438;2023-05-22T02:58:23;101266.99;;;17.63;42.61
38452;BME280;24231;52.514;13.438;2023-05-22T03:00:50;101265.09;;;17.91;41.60
38452;BME280;24231;52.514;13.438;2023-05-22T03:03:17;101265.92;;;17.07;43.65
38452;BME280;24231;52.514;13.438;2023-05-22T03:05:54;101264.79;;;17.63;42.64
38452;BME280;24231;52.514;13.438;2023-05-22T03:08:23;101258.13;;;17.75;42.20
38452;BME280;24231;52.514;13.438;2023-05-22T03:11:03;101256.94;;;18.25;40.97
38452;BME280;24231;52.514;13.438;2023-05-22T03:13:38;101256.65;;;17.86;41.53
38452;BME280;24231;52.514;13.438;2023-05-22T03:16:09;101251.47;;;18.05;41.52
38452;BME280;24231;52.514;13.438;2023-05-22T03:18:44;101248.06;;;18.46;40.82
38452;BME280;24231;52.514;13.438;2023-05-22T03:21:11;101246.40;;;18.87;39.76
38452;BME280;24231;52.514;13.438;2023-05-22T03:24:39;101240.36;;;17.50;42.71
38452;BME280;24231;52.514;13.438;2023-05-22T03:27:09;101240.23;;;17.91;42.07
38452;BME280;24231;52.514;13.438;2023-05-22T03:29:47;101240.60;;;17.44;42.79
38452;BME280;24231;52.514;13.438;2023-05-22T03:32:14;101241.93;;;17.41;43.24
38452;BME280;24231;52.514;13.438;2023-05-22T03:35:10;101241.18;;;18.07;41.85
38452;BME280;24231;52.514;13.438;2023-05-22T03:37:51;101239.97;;;17.81;42.20
38452;BME280;24231;52.514;13.438;2023-05-22T03:40:38;101242.23;;;18.60;40.91
38452;BME280;24231;52.514;13.438;2023-05-22T03:43:13;101241.11;;;17.85;42.24
38452;BME280;24231;52.514;13.438;2023-05-22T03:45:41;101240.33;;;17.70;42.43
38452;BME280;24231;52.514;13.438;2023-05-22T03:48:16;101242.25;;;17.81;42.61
38452;BME280;24231;52.514;13.438;2023-05-22T03:50:43;101245.93;;;17.75;42.38
38452;BME280;24231;52.514;13.438;2023-05-22T03:53:19;101244.17;;;17.02;44.36
38452;BME280;24231;52.514;13.438;2023-05-22T03:55:46;101246.45;;;17.97;42.16
38452;BME280;24231;52.514;13.438;2023-05-22T03:58:21;101246.09;;;17.69;42.65
38452;BME280;24231;52.514;13.438;2023-05-22T04:00:48;101240.40;;;17.48;43.43
38452;BME280;24231;52.514;13.438;2023-05-22T04:03:17;101242.95;;;16.73;45.35
38452;BME280;24231;52.514;13.438;2023-05-22T04:05:46;101239.70;;;17.23;44.09
38452;BME280;24231;52.514;13.438;2023-05-22T04:08:28;101236.81;;;17.71;43.25
38452;BME280;24231;52.514;13.438;2023-05-22T04:10:56;101235.52;;;18.24;42.11
38452;BME280;24231;52.514;13.438;2023-05-22T04:13:40;101234.69;;;18.15;42.32
38452;BME280;24231;52.514;13.438;2023-05-22T04:16:07;101236.44;;;18.75;40.75
38452;BME280;24231;52.514;13.438;2023-05-22T04:18:34;101235.81;;;19.24;40.32
38452;BME280;24231;52.514;13.438;2023-05-22T04:21:01;101233.57;;;19.45;39.97
38452;BME280;24231;52.514;13.438;2023-05-22T04:23:28;101235.20;;;19.87;38.91
38452;BME280;24231;52.514;13.438;2023-05-22T04:26:38;101230.30;;;19.14;40.05
38452;BME280;24231;52.514;13.438;2023-05-22T04:29:18;101235.44;;;19.05;40.57
38452;BME280;24231;52.514;13.438;2023-05-22T04:31:45;101238.66;;;19.00;40.40
38452;BME280;24231;52.514;13.438;2023-05-22T04:34:14;101235.05;;;19.20;40.64
38452;BME280;24231;52.514;13.438;2023-05-22T04:36:52;101235.41;;;19.30;40.14
38452;BME280;24231;52.514;13.438;2023-05-22T04:39:58;101235.31;;;19.28;40.02
38452;BME280;24231;52.514;13.438;2023-05-22T04:42:33;101231.91;;;18.95;40.53
38452;BME280;24231;52.514;13.438;2023-05-22T04:45:06;101240.97;;;19.45;40.13
38452;BME280;24231;52.514;13.438;2023-05-22T04:47:34;101240.24;;;19.82;39.12
38452;BME280;24231;52.514;13.438;2023-05-22T04:50:02;101232.13;;;19.36;40.16
38452;BME280;24231;52.514;13.438;2023-05-22T04:53:07;101233.42;;;19.28;40.47
38452;BME280;24231;52.514;13.438;2023-05-22T04:55:34;101238.73;;;18.95;41.34
38452;BME280;24231;52.514;13.438;2023-05-22T04:58:01;101230.01;;;20.03;39.20
38452;BME280;24231;52.514;13.438;2023-05-22T05:00:29;101234.44;;;18.79;41.63
38452;BME280;24231;52.514;13.438;2023-05-22T05:03:06;101237.75;;;18.99;41.38
38452;BME280;24231;52.514;13.438;2023-05-22T05:05:33;101233.67;;;18.57;42.24
38452;BME280;24231;52.514;13.438;2023-05-22T05:08:00;101227.79;;;19.67;40.02
38452;BME280;24231;52.514;13.438;2023-05-22T05:10:41;101228.77;;;19.39;40.50
38452;BME280;24231;52.514;13.438;2023-05-22T05:13:17;101233.89;;;19.01;41.21
38452;BME280;24231;52.514;13.438;2023-05-22T05:15:45;101231.01;;;19.24;40.82
38452;BME280;24231;52.514;13.438;2023-05-22T05:18:12;101232.11;;;19.48;40.52
38452;BME280;24231;52.514;13.438;2023-05-22T05:20:40;101229.20;;;19.46;40.41
38452;BME280;24231;52.514;13.438;2023-05-22T05:23:07;101235.81;;;18.93;41.59
38452;BME280;24231;52.514;13.438;2023-05-22T05:25:34;101229.20;;;18.99;41.53
38452;BME280;24231;52.514;13.438;2023-05-22T05:28:01;101227.72;;;19.56;40.65
38452;BME280;24231;52.514;13.438;2023-05-22T05:30:34;101233.14;;;19.84;40.13
38452;BME280;24231;52.514;13.438;2023-05-22T05:33:01;101236.69;;;19.46;40.73
38452;BME280;24231;52.514;13.438;2023-05-22T05:35:28;101238.58;;;19.75;40.27
38452;BME280;24231;52.514;13.438;2023-05-22T05:37:55;101246.40;;;19.48;40.92
38452;BME280;24231;52.514;13.438;2023-05-22T05:40:22;101247.27;;;19.11;41.91
38452;BME280;24231;52.514;13.438;2023-05-22T05:42:49;101245.08;;;20.09;40.39
38452;BME280;24231;52.514;13.438;2023-05-22T05:45:17;101246.14;;;19.56;41.54
38452;BME280;24231;52.514;13.438;2023-05-22T05:47:44;101245.10;;;19.72;40.81
38452;BME280;24231;52.514;13.438;2023-05-22T05:50:11;101242.45;;;21.27;38.06
38452;BME280;24231;52.514;13.438;2023-05-22T05:52:38;101243.23;;;21.07;37.84
38452;BME280;24231;52.514;13.438;2023-05-22T05:55:05;101246.72;;;20.48;39.18
38452;BME280;24231;52.514;13.438;2023-05-22T05:57:33;101252.65;;;20.92;38.66
38452;BME280;24231;52.514;13.438;2023-05-22T06:00:01;101249.46;;;20.77;39.02
38452;BME280;24231;52.514;13.438;2023-05-22T06:02:28;101245.04;;;20.80;39.00
38452;BME280;24231;52.514;13.438;2023-05-22T06:04:55;101245.66;;;21.26;38.26
38452;BME280;24231;52.514;13.438;2023-05-22T06:07:21;101246.89;;;20.48;39.39
38452;BME280;24231;52.514;13.438;2023-05-22T06:09:48;101244.58;;;21.28;38.69
38452;BME280;24231;52.514;13.438;2023-05-22T06:12:15;101240.71;;;21.78;37.57
38452;BME280;24231;52.514;13.438;2023-05-22T06:14:42;101243.14;;;21.44;37.91
38452;BME280;24231;52.514;13.438;2023-05-22T06:17:09;101244.62;;;21.08;38.87
38452;BME280;24231;52.514;13.438;2023-05-22T06:19:36;101242.99;;;21.16;38.60
38452;BME280;24231;52.514;13.438;2023-05-22T06:22:03;101234.38;;;21.33;38.65
38452;BME280;24231;52.514;13.438;2023-05-22T06:24:31;101234.77;;;22.68;36.07
38452;BME280;24231;52.514;13.438;2023-05-22T06:26:58;101239.35;;;22.76;35.95
38452;BME280;24231;52.514;13.438;2023-05-22T06:29:25;101232.88;;;22.17;36.99
38452;BME280;24231;52.514;13.438;2023-05-22T06:31:52;101233.08;;;23.08;35.28
38452;BME280;24231;52.514;13.438;2023-05-22T06:34:20;101231.85;;;21.72;37.72
38452;BME280;24231;52.514;13.438;2023-05-22T06:36:46;101236.57;;;21.49;38.87
38452;BME280;24231;52.514;13.438;2023-05-22T06:39:14;101237.04;;;21.31;39.04
38452;BME280;24231;52.514;13.438;2023-05-22T06:41:41;101232.70;;;21.85;38.10
38452;BME280;24231;52.514;13.438;2023-05-22T06:44:08;101236.75;;;20.76;40.50
38452;BME280;24231;52.514;13.438;2023-05-22T06:46:35;101244.64;;;21.01;39.99
38452;BME280;24231;52.514;13.438;2023-05-22T06:49:03;101237.99;;;20.78;40.10
38452;BME280;24231;52.514;13.438;2023-05-22T06:51:29;101235.24;;;20.82;40.25
38452;BME280;24231;52.514;13.438;2023-05-22T06:53:56;101239.31;;;21.26;39.50
38452;BME280;24231;52.514;13.438;2023-05-22T06:56:23;101236.01;;;21.21;39.85
38452;BME280;24231;52.514;13.438;2023-05-22T06:58:51;101230.65;;;21.49;39.31
38452;BME280;24231;52.514;13.438;2023-05-22T07:01:17;101229.12;;;21.83;38.96
38452;BME280;24231;52.514;13.438;2023-05-22T07:03:45;101224.37;;;21.86;38.78
38452;BME280;24231;52.514;13.438;2023-05-22T07:06:12;101223.12;;;22.60;37.39
38452;BME280;24231;52.514;13.438;2023-05-22T07:08:39;101229.94;;;21.80;38.83
38452;BME280;24231;52.514;13.438;2023-05-22T07:11:06;101221.77;;;21.62;39.14
38452;BME280;24231;52.514;13.438;2023-05-22T07:13:33;101224.38;;;22.07;38.77
38452;BME280;24231;52.514;13.438;2023-05-22T07:16:10;101219.59;;;21.66;39.17
38452;BME280;24231;52.514;13.438;2023-05-22T07:18:37;101232.28;;;22.47;37.97
38452;BME280;24231;52.514;13.438;2023-05-22T07:21:04;101230.37;;;22.38;38.31
38452;BME280;24231;52.514;13.438;2023-05-22T07:23:32;101227.43;;;23.14;37.18
38452;BME280;24231;52.514;13.438;2023-05-22T07:25:59;101220.47;;;23.32;36.84
38452;BME280;24231;52.514;13.438;2023-05-22T07:28:26;101222.38;;;23.64;36.19
38452;BME280;24231;52.514;13.438;2023-05-22T07:30:53;101227.41;;;22.32;37.98
38452;BME280;24231;52.514;13.438;2023-05-22T07:33:21;101227.67;;;22.75;37.48
38452;BME280;24231;52.514;13.438;2023-05-22T07:35:48;101229.95;;;23.02;37.16
38452;BME280;24231;52.514;13.438;2023-05-22T07:38:16;101225.81;;;22.73;37.83
38452;BME280;24231;52.514;13.438;2023-05-22T07:40:43;101222.04;;;23.37;36.70
38452;BME280;24231;52.514;13.438;2023-05-22T07:43:10;101226.23;;;23.68;35.76
38452;BME280;24231;52.514;13.438;2023-05-22T07:45:37;101213.85;;;23.67;36.12
38452;BME280;24231;52.514;13.438;2023-05-22T07:48:05;101212.64;;;23.85;35.76
38452;BME280;24231;52.514;13.438;2023-05-22T07:50:32;101213.35;;;23.80;36.02
38452;BME280;24231;52.514;13.438;2023-05-22T07:53:00;101209.97;;;24.09;35.37
38452;BME280;24231;52.514;13.438;2023-05-22T07:55:28;101211.43;;;24.88;34.43
38452;BME280;24231;52.514;13.438;2023-05-22T07:57:55;101213.56;;;25.41;33.61
38452;BME280;24231;52.514;13.438;2023-05-22T08:00:23;101209.83;;;24.41;34.37
38452;BME280;24231;52.514;13.438;2023-05-22T08:02:50;101224.68;;;24.05;35.53
38452;BME280;24231;52.514;13.438;2023-05-22T08:05:17;101213.28;;;24.03;35.51
38452;BME280;24231;52.514;13.438;2023-05-22T08:07:45;101216.91;;;23.61;36.03
38452;BME280;24231;52.514;13.438;2023-05-22T08:10:14;101211.86;;;24.72;34.65
38452;BME280;24231;52.514;13.438;2023-05-22T08:12:41;101213.23;;;24.97;34.14
38452;BME280;24231;52.514;13.438;2023-05-22T08:15:09;101218.08;;;24.07;35.54
38452;BME280;24231;52.514;13.438;2023-05-22T08:17:36;101211.14;;;23.54;36.33
38452;BME280;24231;52.514;13.438;2023-05-22T08:20:04;101212.69;;;24.54;34.85
38452;BME280;24231;52.514;13.438;2023-05-22T08:22:31;101210.09;;;23.49;36.66
38452;BME280;24231;52.514;13.438;2023-05-22T08:24:59;101213.51;;;23.04;37.85
38452;BME280;24231;52.514;13.438;2023-05-22T08:27:25;101207.08;;;24.14;35.99
38452;BME280;24231;52.514;13.438;2023-05-22T08:29:53;101206.83;;;24.28;35.01
38452;BME280;24231;52.514;13.438;2023-05-22T08:32:21;101214.37;;;23.57;36.56
38452;BME280;24231;52.514;13.438;2023-05-22T08:34:48;101211.21;;;23.58;36.21
38452;BME280;24231;52.514;13.438;2023-05-22T08:37:15;101197.34;;;24.62;34.34
38452;BME280;24231;52.514;13.438;2023-05-22T08:39:43;101192.59;;;24.23;35.64
38452;BME280;24231;52.514;13.438;2023-05-22T08:42:10;101192.75;;;24.29;35.45
38452;BME280;24231;52.514;13.438;2023-05-22T08:44:37;101196.69;;;23.70;36.50
38452;BME280;24231;52.514;13.438;2023-05-22T08:47:06;101205.20;;;24.01;35.87
38452;BME280;24231;52.514;13.438;2023-05-22T08:49:33;101208.16;;;23.28;37.18
38452;BME280;24231;52.514;13.438;2023-05-22T08:52:04;101188.13;;;23.88;36.32
38452;BME280;24231;52.514;13.438;2023-05-22T08:54:35;101185.60;;;24.37;35.40
38452;BME280;24231;52.514;13.438;2023-05-22T08:57:06;101186.82;;;24.07;35.60
38452;BME280;24231;52.514;13.438;2023-05-22T08:59:37;101181.22;;;24.07;35.76
38452;BME280;24231;52.514;13.438;2023-05-22T09:02:06;101186.14;;;25.08;34.06
38452;BME280;24231;52.514;13.438;2023-05-22T09:04:34;101169.44;;;24.44;34.89
38452;BME280;24231;52.514;13.438;2023-05-22T09:07:01;101169.98;;;24.27;36.15
38452;BME280;24231;52.514;13.438;2023-05-22T09:09:29;101166.52;;;24.72;34.78
38452;BME280;24231;52.514;13.438;2023-05-22T09:11:56;101169.12;;;24.62;34.78
38452;BME280;24231;52.514;13.438;2023-05-22T09:14:24;101174.05;;;23.26;36.77
38452;BME280;24231;52.514;13.438;2023-05-22T09:16:51;101173.31;;;24.04;36.14
38452;BME280;24231;52.514;13.438;2023-05-22T09:19:19;101164.64;;;24.12;35.76
38452;BME280;24231;52.514;13.438;2023-05-22T09:21:46;101162.92;;;23.69;36.76
38452;BME280;24231;52.514;13.438;2023-05-22T09:24:13;101162.74;;;24.62;35.04
38452;BME280;24231;52.514;13.438;2023-05-22T09:26:40;101155.06;;;24.98;34.13
38452;BME280;24231;52.514;13.438;2023-05-22T09:29:08;101154.12;;;24.98;34.19
38452;BME280;24231;52.514;13.438;2023-05-22T09:31:40;101152.42;;;25.01;34.19
38452;BME280;24231;52.514;13.438;2023-05-22T09:34:08;101158.85;;;23.91;35.30
38452;BME280;24231;52.514;13.438;2023-05-22T09:36:36;101149.92;;;25.07;34.00
38452;BME280;24231;52.514;13.438;2023-05-22T09:39:03;101148.68;;;24.27;35.24
38452;BME280;24231;52.514;13.438;2023-05-22T09:41:35;101144.18;;;24.33;34.89
38452;BME280;24231;52.514;13.438;2023-05-22T09:44:10;101151.49;;;24.28;34.91
38452;BME280;24231;52.514;13.438;2023-05-22T09:46:39;101150.65;;;24.21;35.14
38452;BME280;24231;52.514;13.438;2023-05-22T09:49:06;101152.79;;;24.06;35.07
38452;BME280;24231;52.514;13.438;2023-05-22T09:51:35;101149.28;;;24.11;34.97
38452;BME280;24231;52.514;13.438;2023-05-22T09:54:07;101155.22;;;24.28;34.81
38452;BME280;24231;52.514;13.438;2023-05-22T09:56:35;101147.13;;;23.91;35.37
38452;BME280;24231;52.514;13.438;2023-05-22T09:59:04;101140.10;;;24.06;35.52
38452;BME280;24231;52.514;13.438;2023-05-22T10:01:34;101145.86;;;24.52;34.70
38452;BME280;24231;52.514;13.438;2023-05-22T10:04:02;101130.84;;;24.25;34.86
38452;BME280;24231;52.514;13.438;2023-05-22T10:06:30;101135.62;;;24.40;34.78
38452;BME280;24231;52.514;13.438;2023-05-22T10:09:01;101135.43;;;24.30;34.93
38452;BME280;24231;52.514;13.438;2023-05-22T10:11:30;101136.84;;;24.37;34.17
38452;BME280;24231;52.514;13.438;2023-05-22T10:13:58;101136.25;;;24.24;34.42
38452;BME280;24231;52.514;13.438;2023-05-22T10:16:27;101142.29;;;23.92;35.22
38452;BME280;24231;52.514;13.438;2023-05-22T10:18:55;101142.08;;;23.90;35.34
38452;BME280;24231;52.514;13.438;2023-05-22T10:21:22;101139.33;;;24.27;34.86
38452;BME280;24231;52.514;13.438;2023-05-22T10:23:50;101133.16;;;24.17;34.53
38452;BME280;24231;52.514;13.438;2023-05-22T10:26:18;101130.02;;;24.38;34.20
38452;BME280;24231;52.514;13.438;2023-05-22T10:28:51;101128.79;;;24.32;34.18
38452;BME280;24231;52.514;13.438;2023-05-22T10:31:27;101127.21;;;24.66;33.88
38452;BME280;24231;52.514;13.438;2023-05-22T10:34:00;101123.49;;;24.17;34.35
38452;BME280;24231;52.514;13.438;2023-05-22T10:36:41;101122.56;;;24.03;33.91
38452;BME280;24231;52.514;13.438;2023-05-22T10:39:28;101125.02;;;24.03;34.09
38452;BME280;24231;52.514;13.438;2023-05-22T10:42:11;101117.31;;;24.11;34.08
38452;BME280;24231;52.514;13.438;2023-05-22T10:44:38;101104.28;;;24.70;33.45
38452;BME280;24231;52.514;13.438;2023-05-22T10:47:08;101101.37;;;24.82;32.93
38452;BME280;24231;52.514;13.438;2023-05-22T10:49:35;101099.63;;;25.25;32.69
38452;BME280;24231;52.514;13.438;2023-05-22T10:52:02;101111.76;;;24.54;32.61
38452;BME280;24231;52.514;13.438;2023-05-22T10:54:38;101100.00;;;24.19;33.39
38452;BME280;24231;52.514;13.438;2023-05-22T10:57:09;101093.12;;;24.49;32.35
38452;BME280;24231;52.514;13.438;2023-05-22T10:59:36;101084.27;;;24.88;32.07
38452;BME280;24231;52.514;13.438;2023-05-22T11:02:05;101083.41;;;24.78;32.02
38452;BME280;24231;52.514;13.438;2023-05-22T11:04:32;101087.56;;;24.00;32.70
38452;BME280;24231;52.514;13.438;2023-05-22T11:07:03;101090.02;;;24.08;33.30
38452;BME280;24231;52.514;13.438;2023-05-22T11:09:32;101078.92;;;24.44;32.14
38452;BME280;24231;52.514;13.438;2023-05-22T11:12:17;101076.30;;;24.47;31.86
38452;BME280;24231;52.514;13.438;2023-05-22T11:14:51;101069.59;;;24.42;32.02
38452;BME280;24231;52.514;13.438;2023-05-22T11:17:23;101071.37;;;24.68;31.30
38452;BME280;24231;52.514;13.438;2023-05-22T11:20:11;101075.41;;;23.86;32.03
38452;BME280;24231;52.514;13.438;2023-05-22T11:22:43;101076.68;;;24.59;31.25
38452;BME280;24231;52.514;13.438;2023-05-22T11:25:16;101070.66;;;24.98;30.15
38452;BME280;24231;52.514;13.438;2023-05-22T11:27:45;101082.11;;;24.43;30.86
38452;BME280;24231;52.514;13.438;2023-05-22T11:30:14;101079.90;;;24.06;31.09
38452;BME280;24231;52.514;13.438;2023-05-22T11:32:43;101064.63;;;24.42;30.59
38452;BME280;24231;52.514;13.438;2023-05-22T11:35:13;101066.87;;;24.14;30.61
38452;BME280;24231;52.514;13.438;2023-05-22T11:37:40;101066.25;;;24.35;30.45
38452;BME280;24231;52.514;13.438;2023-05-22T11:40:09;101068.15;;;24.07;30.32
38452;BME280;24231;52.514;13.438;2023-05-22T11:42:36;101071.31;;;23.94;30.38
38452;BME280;24231;52.514;13.438;2023-05-22T11:45:05;101064.24;;;24.00;30.88
38452;BME280;24231;52.514;13.438;2023-05-22T11:47:32;101054.22;;;24.21;30.35
38452;BME280;24231;52.514;13.438;2023-05-22T11:50:00;101052.13;;;24.26;30.32
38452;BME280;24231;52.514;13.438;2023-05-22T11:52:30;101055.41;;;23.69;30.81
38452;BME280;24231;52.514;13.438;2023-05-22T11:54:57;101058.29;;;23.90;30.84
38452;BME280;24231;52.514;13.438;2023-05-22T11:57:25;101052.43;;;23.94;30.42
38452;BME280;24231;52.514;13.438;2023-05-22T11:59:53;101051.37;;;23.77;30.57
38452;BME280;24231;52.514;13.438;2023-05-22T12:02:20;101051.11;;;23.50;30.61
38452;BME280;24231;52.514;13.438;2023-05-22T12:04:53;101054.61;;;23.71;30.72
38452;BME280;24231;52.514;13.438;2023-05-22T12:07:20;101047.33;;;23.90;30.06
38452;BME280;24231;52.514;13.438;2023-05-22T12:09:48;101040.34;;;24.04;29.93
38452;BME280;24231;52.514;13.438;2023-05-22T12:12:16;101046.76;;;24.04;30.33
38452;BME280;24231;52.514;13.438;2023-05-22T12:14:44;101042.61;;;24.37;29.66
38452;BME280;24231;52.514;13.438;2023-05-22T12:17:11;101041.18;;;24.11;29.85
38452;BME280;24231;52.514;13.438;2023-05-22T12:19:39;101034.76;;;24.37;29.18
38452;BME280;24231;52.514;13.438;2023-05-22T12:22:07;101030.08;;;24.03;29.48
38452;BME280;24231;52.514;13.438;2023-05-22T12:24:45;101044.48;;;23.86;29.76
38452;BME280;24231;52.514;13.438;2023-05-22T12:27:14;101023.49;;;24.12;29.50
38452;BME280;24231;52.514;13.438;2023-05-22T12:29:41;101048.33;;;23.94;29.48
38452;BME280;24231;52.514;13.438;2023-05-22T12:32:10;101038.27;;;23.90;29.85
38452;BME280;24231;52.514;13.438;2023-05-22T12:34:43;101034.05;;;24.28;29.17
38452;BME280;24231;52.514;13.438;2023-05-22T12:37:19;101031.35;;;23.80;29.51
38452;BME280;24231;52.514;13.438;2023-05-22T12:39:54;101025.90;;;24.96;28.27
38452;BME280;24231;52.514;13.438;2023-05-22T12:42:22;101030.32;;;23.99;29.04
38452;BME280;24231;52.514;13.438;2023-05-22T12:44:51;101022.97;;;23.99;29.34
38452;BME280;24231;52.514;13.438;2023-05-22T12:47:19;101020.71;;;23.83;29.23
38452;BME280;24231;52.514;13.438;2023-05-22T12:49:47;101036.76;;;23.61;29.58
38452;BME280;24231;52.514;13.438;2023-05-22T12:52:14;101025.93;;;23.81;29.71
38452;BME280;24231;52.514;13.438;2023-05-22T12:54:42;101022.39;;;24.19;28.87
38452;BME280;24231;52.514;13.438;2023-05-22T12:57:10;101022.75;;;24.06;28.68